• Join FlightAware (Why Join?)
  • Login
  • US Flag 
12:32PM EDT


 

Airport Tracker/Info


-or-


 

Live Flight TrackerFlight Track Log ✈ JTA613 ✈ 30-Jun-2013 ✈ ROAH / OKA - ROIG / ISG

Flight Track Log - Related Links

Times and Time Zones

All times are in EDT time to prevent confusion due to time zone crossing. See the JTA613 flight status page for this flight to view local times or setup timezone preferences in your user account.

Time Position Orientation Groundspeed Altitude Reporting Facility
EDT Latitude Longitude Course Direction KTS MPH feet Rate Location/Type
01:42AM 26.0449 127.3540 240° Southwest  Level Estimated
01:43AM 25.9945 127.2569 240° Southwest  Level Estimated
01:44AM 25.9440 127.1598 240° Southwest  Level Estimated
01:45AM 25.8934 127.0629 240° Southwest  Level Estimated
01:46AM 25.8428 126.9660 240° Southwest  Level Estimated
01:47AM 25.7921 126.8692 240° Southwest  Level Estimated
01:48AM 25.7413 126.7725 240° Southwest  Level Estimated
01:49AM 25.6905 126.6759 240° Southwest  Level Estimated
01:50AM 25.6396 126.5794 240° Southwest  Level Estimated
01:51AM 25.5887 126.4829 240° Southwest  Level Estimated
01:52AM 25.5377 126.3865 240° Southwest  Level Estimated
01:53AM 25.4866 126.2902 240° Southwest  Level Estimated
01:54AM 25.4354 126.1940 240° Southwest  Level Estimated
01:55AM 25.3843 126.0979 239° Southwest  Level Estimated
01:56AM 25.3330 126.0018 239° Southwest  Level Estimated
01:57AM 25.2817 125.9059 239° Southwest  Level Estimated
01:58AM 25.2303 125.8100 239° Southwest  Level Estimated
01:59AM 25.1788 125.7142 239° Southwest  Level Estimated
02:00AM 25.1273 125.6184 239° Southwest  Level Estimated
02:01AM 25.0758 125.5228 239° Southwest  Level Estimated
02:02AM 25.0241 125.4273 239° Southwest  Level Estimated
02:03AM 24.9724 125.3318 239° Southwest  Level Estimated
02:04AM 24.9207 125.2364 239° Southwest  Level Estimated
02:05AM 24.8689 125.1411 239° Southwest  Level Estimated
02:06AM 24.8170 125.0458 239° Southwest  Level Estimated
02:07AM 24.7650 124.9507 239° Southwest  Level Estimated
02:08AM 24.7131 124.8556 239° Southwest  Level Estimated
02:09AM 24.6610 124.7606 239° Southwest  Level Estimated
02:10AM 24.6089 124.6656 239° Southwest  Level Estimated
02:11AM 24.5567 124.5708 239° Southwest  Level Estimated
02:12AM 24.5045 124.4760 239° Southwest  Level Estimated
02:13AM 24.4522 124.3813 239° Southwest  Level Estimated
02:14AM 24.3998 124.2867 239° Southwest  Level Estimated
02:15AM 24.3474 124.1922 239° Southwest  Level Estimated
02:16AM 24.3445 124.1870 239° Southwest  Level Estimated
02:17AM 24.3445 124.1870 29° Northeast  Level Estimated
02:18AM 24.3445 124.1870 29° Northeast  Level Estimated
02:19AM 24.3445 124.1870 29° Northeast  Level Estimated
02:20AM 24.3445 124.1870 29° Northeast  Level Estimated